createdAt,value
2017-05-03T13:52:32.972Z,10.34
2017-05-03T14:17:20.153Z,9.13
2017-05-03T14:19:48.449Z,7.43
2017-05-03T14:22:16.801Z,5.40
2017-05-03T14:24:45.965Z,4.25
2017-05-03T14:27:14.277Z,4.35
2017-05-03T14:29:42.591Z,4.07
2017-05-03T14:32:10.901Z,4.08
2017-05-03T14:34:39.209Z,3.95
2017-05-03T14:37:08.407Z,4.12
2017-05-03T14:39:36.713Z,4.32
2017-05-03T14:42:05.067Z,4.18
2017-05-03T14:44:33.801Z,4.63
2017-05-03T14:47:02.113Z,4.82
2017-05-03T14:49:30.501Z,5.65
2017-05-03T14:51:59.004Z,5.00
2017-05-03T14:54:28.009Z,5.23
2017-05-03T14:56:56.362Z,5.15
2017-05-03T14:59:24.677Z,5.22
2017-05-03T15:01:52.985Z,4.82
2017-05-03T15:04:21.333Z,5.02
2017-05-03T15:06:50.390Z,4.67
2017-05-03T15:09:18.744Z,4.33
2017-05-03T15:11:47.853Z,4.42
2017-05-03T15:14:16.210Z,7.68
2017-05-03T15:16:44.518Z,4.82
2017-05-03T15:19:12.820Z,4.72
2017-05-03T15:21:41.173Z,4.35
2017-05-03T15:24:10.273Z,4.63
2017-05-03T15:26:39.329Z,4.80
2017-05-03T15:29:08.394Z,4.80
2017-05-03T15:31:36.756Z,5.35
2017-05-03T15:34:05.481Z,4.72
2017-05-03T15:36:33.798Z,4.42
2017-05-03T15:39:02.149Z,4.70
2017-05-03T15:41:30.481Z,4.48
2017-05-03T15:43:58.794Z,5.05
2017-05-03T15:46:27.492Z,4.42
2017-05-03T15:48:55.853Z,4.85
2017-05-03T15:51:25.097Z,4.83
2017-05-03T15:53:53.401Z,4.70
2017-05-03T15:56:21.792Z,4.37
2017-05-03T15:58:50.113Z,4.40
2017-05-03T16:01:23.525Z,4.70
2017-05-03T16:03:51.886Z,6.00
2017-05-03T16:06:20.268Z,4.92
2017-05-03T16:08:48.620Z,6.63
2017-05-03T16:11:16.976Z,4.90
2017-05-03T16:13:45.382Z,5.60
2017-05-03T16:16:13.694Z,5.65
2017-05-03T16:18:42.329Z,6.97
2017-05-03T16:21:10.642Z,4.93
2017-05-03T16:23:39.693Z,6.32
2017-05-03T16:26:07.998Z,7.15
2017-05-03T16:28:36.329Z,6.73
2017-05-03T16:31:05.449Z,6.72
2017-05-03T16:33:33.762Z,6.52
2017-05-03T16:36:02.106Z,8.32
2017-05-03T16:38:30.461Z,7.20
2017-05-03T16:40:59.517Z,6.70
2017-05-03T16:43:27.822Z,7.90
2017-05-03T16:45:56.169Z,6.60
2017-05-03T16:48:30.377Z,6.47
2017-05-03T16:50:58.732Z,7.37
2017-05-03T16:53:27.045Z,6.65
2017-05-03T16:55:55.578Z,7.27
2017-05-03T16:58:23.940Z,7.18
2017-05-03T17:00:52.361Z,7.88
2017-05-03T17:03:21.024Z,7.72
2017-05-03T17:05:50.081Z,7.50
2017-05-03T17:08:18.467Z,7.17
2017-05-03T17:10:46.781Z,7.90
2017-05-03T17:13:15.397Z,8.03
2017-05-03T17:15:43.701Z,7.48
2017-05-03T17:18:12.085Z,8.12
2017-05-03T17:20:40.736Z,8.53
2017-05-03T17:23:09.840Z,8.25
2017-05-03T17:25:38.195Z,9.27
2017-05-03T17:28:06.540Z,7.73
2017-05-03T17:30:37.745Z,8.60
2017-05-03T17:33:06.059Z,9.32
2017-05-03T17:35:34.404Z,9.52
2017-05-03T17:38:03.501Z,9.20
2017-05-03T17:40:31.806Z,12.25
2017-05-03T17:43:02.930Z,11.27
2017-05-03T17:45:31.233Z,10.97
2017-05-03T17:47:59.661Z,9.92
2017-05-03T17:50:28.161Z,10.20
2017-05-03T17:52:56.515Z,11.07
2017-05-03T17:55:24.945Z,11.42
2017-05-03T17:57:53.341Z,11.57
2017-05-03T18:00:21.826Z,11.42
2017-05-03T18:02:50.141Z,12.30
2017-05-03T18:05:18.496Z,11.35
2017-05-03T18:07:47.908Z,13.35
2017-05-03T18:10:17.013Z,16.12
2017-05-03T18:12:45.521Z,14.87
2017-05-03T18:15:14.581Z,13.88
2017-05-03T18:17:42.933Z,14.48
2017-05-03T18:20:11.588Z,13.80
2017-05-03T18:22:40.281Z,14.25
2017-05-03T18:25:09.955Z,13.90
2017-05-03T18:27:42.449Z,13.60
2017-05-03T18:30:10.809Z,13.45
2017-05-03T18:32:39.125Z,15.68
2017-05-03T18:35:07.474Z,16.30
2017-05-03T18:37:36.573Z,16.68
2017-05-03T18:40:06.389Z,14.98
2017-05-03T18:42:34.697Z,14.63
2017-05-03T18:45:03.292Z,13.43
2017-05-03T18:47:31.689Z,13.63
2017-05-03T18:50:00.157Z,14.35
2017-05-03T18:52:28.467Z,16.60
2017-05-03T18:54:56.772Z,17.32
2017-05-03T18:57:25.446Z,15.85
2017-05-03T18:59:54.493Z,16.95
2017-05-03T19:02:22.873Z,20.68
2017-05-03T19:04:51.349Z,17.70
2017-05-03T19:07:20.545Z,18.80
2017-05-03T19:09:48.857Z,17.02
2017-05-03T19:12:17.213Z,17.58
2017-05-03T19:14:50.796Z,15.90
2017-05-03T19:17:19.113Z,15.80
2017-05-03T19:19:47.425Z,16.47
2017-05-03T19:22:15.936Z,16.78
2017-05-03T19:24:44.301Z,13.87
2017-05-03T19:27:12.661Z,11.20
2017-05-03T19:29:40.973Z,9.77
2017-05-03T19:32:10.016Z,8.97
2017-05-03T19:34:38.381Z,7.30
2017-05-03T19:37:07.485Z,8.10
2017-05-03T19:39:35.926Z,9.22
2017-05-03T19:42:04.625Z,8.88
2017-05-03T19:44:32.940Z,12.28
2017-05-03T19:47:01.292Z,8.43
2017-05-03T19:49:30.434Z,7.63
2017-05-03T19:51:59.601Z,8.22
2017-05-03T19:54:27.961Z,7.75
2017-05-03T19:56:56.286Z,8.83
2017-05-03T19:59:24.584Z,8.62
2017-05-03T20:01:52.932Z,8.70
2017-05-03T20:04:22.036Z,8.97
2017-05-03T20:06:50.361Z,10.50
2017-05-03T20:09:19.402Z,9.10
2017-05-03T20:11:47.753Z,10.10
2017-05-03T20:14:16.057Z,8.88
2017-05-03T20:16:44.784Z,8.27
2017-05-03T20:19:13.146Z,8.58
2017-05-03T20:21:41.462Z,8.23
2017-05-03T20:24:09.810Z,7.95
2017-05-03T20:26:38.132Z,7.30
2017-05-03T20:29:06.540Z,7.18
2017-05-03T20:31:34.852Z,6.63
2017-05-03T20:34:03.153Z,7.08
2017-05-03T20:36:31.457Z,7.65
2017-05-03T20:38:59.761Z,7.45
2017-05-03T20:41:29.296Z,9.07
2017-05-03T20:43:58.394Z,7.82
2017-05-03T20:46:27.457Z,8.70
2017-05-03T20:48:55.849Z,7.93
2017-05-03T20:51:24.505Z,8.08
2017-05-03T20:53:53.074Z,7.37
2017-05-03T20:56:21.685Z,7.02
2017-05-03T20:58:50.383Z,5.92
2017-05-03T21:01:18.689Z,6.33
2017-05-03T21:03:47.045Z,6.23
2017-05-03T21:06:15.468Z,6.03
2017-05-03T21:08:43.828Z,6.82
2017-05-03T21:11:13.114Z,7.47
2017-05-03T21:13:41.448Z,7.12
2017-05-03T21:16:09.795Z,7.08
2017-05-03T21:18:38.151Z,6.48
2017-05-03T21:21:07.205Z,5.72
2017-05-03T21:23:35.592Z,6.25
2017-05-03T21:26:03.907Z,6.00
2017-05-03T21:28:32.788Z,6.18
2017-05-03T21:31:01.268Z,5.83
2017-05-03T21:33:30.357Z,5.48
2017-05-03T21:35:58.756Z,5.75
2017-05-03T21:38:27.115Z,6.33
2017-05-03T21:40:55.709Z,6.18
2017-05-03T21:43:24.809Z,6.18
2017-05-03T21:45:53.913Z,5.68
2017-05-03T21:48:22.405Z,7.57
2017-05-03T21:50:50.718Z,5.78
2017-05-03T21:53:19.333Z,6.88
2017-05-03T21:55:47.637Z,6.03
2017-05-03T21:58:16.877Z,6.90
2017-05-03T22:00:45.197Z,7.18
2017-05-03T22:03:13.502Z,7.02
2017-05-03T22:05:42.120Z,6.17
2017-05-03T22:08:10.437Z,6.47
2017-05-03T22:10:40.862Z,7.00
2017-05-03T22:13:09.216Z,6.88
2017-05-03T22:15:37.573Z,6.15
2017-05-03T22:18:05.933Z,6.10
2017-05-03T22:20:34.290Z,6.82
2017-05-03T22:23:03.828Z,6.38
2017-05-03T22:25:32.883Z,6.72
2017-05-03T22:28:01.565Z,6.12
2017-05-03T22:30:29.877Z,7.25
2017-05-03T22:32:58.226Z,6.63
2017-05-03T22:35:26.937Z,6.80
2017-05-03T22:37:55.242Z,5.95
2017-05-03T22:40:23.590Z,7.13
2017-05-03T22:42:52.969Z,7.23
2017-05-03T22:45:22.937Z,7.67
2017-05-03T22:47:53.097Z,8.93
2017-05-03T22:50:25.929Z,11.77
2017-05-03T22:52:56.545Z,11.97
2017-05-03T22:55:27.929Z,15.48
2017-05-03T22:57:59.340Z,13.37
2017-05-03T23:00:30.152Z,16.47
2017-05-03T23:03:03.557Z,13.80
2017-05-03T23:05:33.854Z,11.92
2017-05-03T23:08:03.286Z,15.32
2017-05-03T23:10:35.404Z,14.80
2017-05-03T23:13:04.625Z,15.08
2017-05-03T23:15:36.332Z,15.58
2017-05-03T23:18:06.452Z,12.00
2017-05-03T23:20:36.746Z,15.28
2017-05-03T23:23:10.617Z,16.38
2017-05-03T23:25:41.968Z,21.13
2017-05-03T23:28:11.665Z,21.95
2017-05-03T23:30:40.780Z,23.48
2017-05-03T23:33:11.081Z,22.42
2017-05-03T23:35:41.883Z,21.43
2017-05-03T23:38:11.152Z,24.53
2017-05-03T23:40:39.683Z,23.42
2017-05-03T23:43:09.424Z,22.20
2017-05-03T23:45:38.318Z,26.50
2017-05-03T23:48:08.003Z,25.28
2017-05-03T23:50:36.845Z,25.52
2017-05-03T23:53:09.097Z,28.70
2017-05-03T23:55:39.448Z,29.52
2017-05-03T23:58:09.660Z,29.93
